Time;durP1;ratioP1;P1;durP2;ratioP2;P2;SDS_P1;SDS_P2;PMS_P1;PMS_P2;Temp;Humidity;BMP_temperature;BMP_pressure;BME280_temperature;BME280_humidity;BME280_pressure;Samples;Min_cycle;Max_cycle;Signal;HPM_P1;HPM_P2
2022/02/27 00:03:18;;;;;;;9.03;3.20;;;;;;;;;;10280646;28;19929;-68
2022/02/27 00:08:22;;;;;;;14.60;2.33;;;;;;;;;;10281850;28;20043;-73
2022/02/27 00:13:27;;;;;;;12.03;2.50;;;;;;;;;;10302309;28;20093;-72
2022/02/27 00:18:29;;;;;;;4.50;2.07;;;;;;;;;;10279784;28;20039;-72
2022/02/27 00:23:34;;;;;;;7.90;2.47;;;;;;;;;;10291929;28;20038;-73
2022/02/27 00:28:37;;;;;;;4.43;2.17;;;;;;;;;;10286787;28;20503;-73
2022/02/27 00:33:44;;;;;;;4.90;2.10;;;;;;;;;;10287574;28;20071;-72
2022/02/27 00:38:49;;;;;;;6.13;3.20;;;;;;;;;;10286177;28;20406;-72
2022/02/27 00:43:55;;;;;;;6.27;2.37;;;;;;;;;;10281475;28;20055;-71
2022/02/27 00:48:59;;;;;;;9.18;2.90;;;;;;;;;;10285670;28;20035;-69
2022/02/27 00:54:04;;;;;;;9.90;2.75;;;;;;;;;;10293070;28;20578;-72
2022/02/27 00:59:08;;;;;;;8.40;2.80;;;;;;;;;;10277507;28;20066;-73
2022/02/27 01:04:11;;;;;;;9.48;2.78;;;;;;;;;;10297420;28;20061;-71
2022/02/27 01:09:16;;;;;;;9.53;2.23;;;;;;;;;;10289420;28;20515;-72
2022/02/27 01:14:18;;;;;;;11.40;3.10;;;;;;;;;;10273203;28;20097;-72
2022/02/27 01:19:21;;;;;;;7.73;2.80;;;;;;;;;;10284040;28;20037;-71
2022/02/27 01:24:26;;;;;;;12.97;3.30;;;;;;;;;;10279726;28;20054;-73
2022/02/27 01:29:29;;;;;;;5.17;2.43;;;;;;;;;;10275502;28;20039;-72
2022/02/27 01:34:32;;;;;;;8.13;2.57;;;;;;;;;;10280839;28;20057;-71
2022/02/27 01:39:37;;;;;;;5.25;2.53;;;;;;;;;;10264930;28;20457;-72
2022/02/27 01:44:40;;;;;;;3.97;2.30;;;;;;;;;;10266553;28;20059;-70
2022/02/27 01:49:44;;;;;;;7.03;2.40;;;;;;;;;;10281644;28;20035;-71
2022/02/27 01:54:50;;;;;;;6.70;2.60;;;;;;;;;;10259377;28;20057;-72
2022/02/27 01:59:53;;;;;;;6.47;2.27;;;;;;;;;;10277075;28;20035;-71
2022/02/27 02:04:57;;;;;;;5.93;2.47;;;;;;;;;;10277768;28;20039;-72
2022/02/27 02:10:03;;;;;;;8.82;2.90;;;;;;;;;;10279578;28;20139;-72
2022/02/27 02:15:07;;;;;;;2.63;1.40;;;;;;;;;;10280034;28;20041;-71
2022/02/27 02:20:15;;;;;;;5.57;1.83;;;;;;;;;;10265228;28;20049;-72
2022/02/27 02:25:27;;;;;;;5.53;2.43;;;;;;;;;;10265268;28;20039;-72
2022/02/27 02:30:33;;;;;;;7.40;2.20;;;;;;;;;;10276953;28;20039;-71
2022/02/27 02:35:38;;;;;;;6.00;2.30;;;;;;;;;;10260851;28;20070;-69
2022/02/27 02:40:41;;;;;;;4.40;2.03;;;;;;;;;;10268837;28;20114;-73
2022/02/27 02:45:44;;;;;;;9.37;2.60;;;;;;;;;;10266905;28;20396;-72
2022/02/27 02:50:48;;;;;;;7.80;1.90;;;;;;;;;;10264817;28;20062;-72
2022/02/27 02:55:51;;;;;;;10.13;2.40;;;;;;;;;;10278178;28;20069;-72
2022/02/27 03:00:54;;;;;;;7.37;2.70;;;;;;;;;;10262506;28;20050;-72
2022/02/27 03:06:00;;;;;;;9.30;2.15;;;;;;;;;;10278651;28;20876;-75
2022/02/27 03:11:03;;;;;;;4.17;2.27;;;;;;;;;;10262715;28;20038;-70
2022/02/27 03:16:06;;;;;;;7.60;1.67;;;;;;;;;;10281896;28;20557;-72
2022/02/27 03:21:11;;;;;;;6.03;1.87;;;;;;;;;;10267365;28;20503;-73
2022/02/27 03:26:14;;;;;;;4.67;2.27;;;;;;;;;;10276615;28;20431;-70
2022/02/27 03:31:17;;;;;;;4.97;1.80;;;;;;;;;;10265662;28;20070;-71
2022/02/27 03:36:22;;;;;;;7.70;2.50;;;;;;;;;;10253758;28;20481;-73
2022/02/27 03:41:26;;;;;;;4.80;1.77;;;;;;;;;;10266712;28;20161;-72
2022/02/27 03:46:34;;;;;;;8.33;2.77;;;;;;;;;;10261802;28;20049;-72
2022/02/27 03:51:39;;;;;;;5.83;2.30;;;;;;;;;;10278277;28;20041;-71
2022/02/27 03:56:43;;;;;;;7.00;2.73;;;;;;;;;;10279006;28;20045;-70
2022/02/27 04:01:45;;;;;;;8.57;2.27;;;;;;;;;;10289635;28;20043;-71
2022/02/27 04:06:51;;;;;;;4.50;1.85;;;;;;;;;;10283119;28;20039;-71
2022/02/27 04:11:55;;;;;;;6.57;2.70;;;;;;;;;;10277980;28;20055;-71
2022/02/27 04:16:58;;;;;;;3.83;2.03;;;;;;;;;;10267033;28;20054;-69
2022/02/27 04:22:02;;;;;;;4.23;2.70;;;;;;;;;;10278122;28;20039;-71
2022/02/27 04:27:06;;;;;;;6.00;2.93;;;;;;;;;;10276235;28;20130;-72
2022/02/27 04:32:09;;;;;;;3.53;2.03;;;;;;;;;;10277720;28;20041;-73
2022/02/27 04:37:14;;;;;;;5.45;2.30;;;;;;;;;;10292033;28;20078;-73
2022/02/27 04:42:17;;;;;;;6.37;2.77;;;;;;;;;;10276758;28;21359;-71
2022/02/27 04:47:20;;;;;;;13.23;2.67;;;;;;;;;;10284622;23;20491;-69
2022/02/27 04:52:25;;;;;;;4.17;2.40;;;;;;;;;;10288405;28;20043;-69
2022/02/27 04:57:29;;;;;;;9.43;3.50;;;;;;;;;;10287335;28;20491;-70
2022/02/27 05:02:32;;;;;;;6.33;2.80;;;;;;;;;;10289530;28;20065;-69
2022/02/27 05:07:36;;;;;;;2.13;1.57;;;;;;;;;;10274950;28;20514;-68
2022/02/27 05:12:40;;;;;;;7.43;2.67;;;;;;;;;;10267359;28;20086;-69
2022/02/27 05:17:44;;;;;;;7.95;2.38;;;;;;;;;;10276365;28;20051;-67
2022/02/27 05:22:49;;;;;;;9.40;2.53;;;;;;;;;;10265450;28;20110;-69
2022/02/27 05:27:54;;;;;;;7.03;2.40;;;;;;;;;;10273171;28;20407;-70
2022/02/27 05:32:56;;;;;;;4.32;2.38;;;;;;;;;;10271756;28;20129;-69
2022/02/27 05:38:01;;;;;;;8.23;1.90;;;;;;;;;;10277628;28;20051;-70
2022/02/27 05:43:04;;;;;;;1.87;1.57;;;;;;;;;;10287466;28;20039;-71
2022/02/27 05:48:08;;;;;;;;;;;;;;;;;;10281473;28;20069;-70
2022/02/27 05:53:14;;;;;;;7.93;2.60;;;;;;;;;;10274161;28;19921;-68
2022/02/27 05:58:16;;;;;;;;;;;;;;;;;;10278603;28;20054;-69
2022/02/27 06:03:19;;;;;;;3.90;2.30;;;;;;;;;;10265854;28;19922;-71
2022/02/27 06:08:24;;;;;;;7.63;2.80;;;;;;;;;;10274975;28;20396;-68
2022/02/27 06:13:26;;;;;;;;;;;;;;;;;;10281202;28;20059;-69
2022/02/27 06:18:33;;;;;;;4.43;2.47;;;;;;;;;;10272027;28;20305;-69
2022/02/27 06:23:38;;;;;;;4.78;2.75;;;;;;;;;;10285670;28;20046;-69
2022/02/27 06:28:49;;;;;;;1.23;0.93;;;;;;;;;;10270536;28;20047;-69
2022/02/27 06:33:53;;;;;;;6.00;2.85;;;;;;;;;;10284563;28;20073;-69
2022/02/27 06:38:58;;;;;;;9.45;4.43;;;;;;;;;;10279295;28;20053;-69
2022/02/27 06:44:01;;;;;;;5.37;3.20;;;;;;;;;;10280229;28;20043;-68
2022/02/27 06:49:05;;;;;;;4.47;2.47;;;;;;;;;;10278738;28;20042;-68
2022/02/27 06:54:11;;;;;;;7.85;2.72;;;;;;;;;;10277657;28;20035;-68
2022/02/27 06:59:14;;;;;;;6.10;3.40;;;;;;;;;;10262222;28;20092;-68
2022/02/27 07:04:18;;;;;;;9.80;3.70;;;;;;;;;;10268337;28;20049;-68
2022/02/27 07:09:23;;;;;;;6.60;3.70;;;;;;;;;;10265123;28;20038;-68
2022/02/27 07:14:26;;;;;;;8.75;3.58;;;;;;;;;;10263492;28;20160;-69
2022/02/27 07:19:30;;;;;;;9.30;3.70;;;;;;;;;;10253949;28;20138;-69
2022/02/27 07:24:34;;;;;;;6.85;3.45;;;;;;;;;;10266580;28;20042;-69
2022/02/27 07:29:38;;;;;;;11.65;4.63;;;;;;;;;;10254146;28;20093;-68
2022/02/27 07:34:41;;;;;;;11.52;4.30;;;;;;;;;;10262248;28;20051;-69
2022/02/27 07:39:46;;;;;;;9.02;4.00;;;;;;;;;;10284097;28;20047;-69
2022/02/27 07:44:50;;;;;;;9.55;4.60;;;;;;;;;;10272432;28;20043;-69
2022/02/27 07:49:55;;;;;;;11.57;4.70;;;;;;;;;;10270252;28;20134;-68
2022/02/27 07:55:00;;;;;;;12.65;4.80;;;;;;;;;;10265095;28;20034;-70
2022/02/27 08:00:04;;;;;;;8.45;4.53;;;;;;;;;;10285251;28;20043;-69
2022/02/27 08:05:08;;;;;;;10.63;5.55;;;;;;;;;;10265984;28;20413;-69
2022/02/27 08:10:12;;;;;;;10.70;5.10;;;;;;;;;;10266364;28;20050;-67
2022/02/27 08:15:16;;;;;;;11.20;5.10;;;;;;;;;;10273243;28;20055;-67
2022/02/27 08:20:20;;;;;;;9.35;5.22;;;;;;;;;;10276930;28;20035;-70
2022/02/27 08:25:25;;;;;;;7.70;4.80;;;;;;;;;;10285645;28;20034;-69
2022/02/27 08:30:27;;;;;;;11.63;5.35;;;;;;;;;;10290772;28;20419;-68
2022/02/27 08:35:31;;;;;;;9.35;4.90;;;;;;;;;;10269900;28;20035;-69
2022/02/27 08:40:35;;;;;;;8.85;4.82;;;;;;;;;;10283696;28;20098;-68
2022/02/27 08:45:39;;;;;;;9.80;4.95;;;;;;;;;;10277736;28;20325;-69
2022/02/27 08:50:42;;;;;;;8.30;4.82;;;;;;;;;;10280926;28;20038;-68
2022/02/27 08:55:46;;;;;;;10.43;5.20;;;;;;;;;;10270338;28;20137;-69
2022/02/27 09:00:50;;;;;;;8.07;4.88;;;;;;;;;;10289148;28;20467;-69
2022/02/27 09:05:54;;;;;;;8.93;5.13;;;;;;;;;;10282451;28;20039;-69
2022/02/27 09:10:58;;;;;;;9.43;4.57;;;;;;;;;;10260718;28;20046;-69
2022/02/27 09:16:02;;;;;;;5.78;3.15;;;;;;;;;;10276001;28;20030;-68
2022/02/27 09:21:05;;;;;;;9.93;4.57;;;;;;;;;;10269610;28;20129;-68
2022/02/27 09:26:10;;;;;;;9.13;4.70;;;;;;;;;;10268630;28;20185;-69
2022/02/27 09:31:28;;;;;;;7.47;3.70;;;;;;;;;;10274745;28;20039;-69
2022/02/27 09:36:33;;;;;;;8.48;4.20;;;;;;;;;;10264398;28;20511;-70
2022/02/27 09:41:38;;;;;;;6.70;4.15;;;;;;;;;;10261725;28;20492;-68
2022/02/27 09:46:42;;;;;;;6.60;3.88;;;;;;;;;;10263303;28;20057;-69
2022/02/27 09:51:45;;;;;;;6.45;3.83;;;;;;;;;;10267576;28;20043;-69
2022/02/27 09:56:50;;;;;;;8.13;4.15;;;;;;;;;;10286649;28;20043;-69
2022/02/27 10:01:58;;;;;;;7.32;4.85;;;;;;;;;;10284450;28;20063;-69
2022/02/27 10:07:01;;;;;;;7.63;4.38;;;;;;;;;;10260098;28;20118;-69
2022/02/27 10:12:20;;;;;;;5.65;3.03;;;;;;;;;;10264471;28;20104;-70
2022/02/27 10:17:28;;;;;;;11.18;4.53;;;;;;;;;;10258226;28;20133;-69
2022/02/27 10:22:34;;;;;;;40.65;7.60;;;;;;;;;;10282548;28;20046;-68
2022/02/27 10:27:42;;;;;;;7.65;4.28;;;;;;;;;;10252513;28;20043;-69
2022/02/27 10:32:49;;;;;;;9.75;5.18;;;;;;;;;;10264130;28;20518;-69
2022/02/27 10:37:51;;;;;;;5.47;2.92;;;;;;;;;;10276308;28;20134;-70
2022/02/27 10:42:58;;;;;;;56.05;14.32;;;;;;;;;;10282047;28;20527;-69
2022/02/27 10:48:02;;;;;;;29.75;8.82;;;;;;;;;;10280653;23;20047;-65
2022/02/27 10:53:05;;;;;;;15.00;6.03;;;;;;;;;;10275956;28;20091;-68
2022/02/27 10:58:09;;;;;;;17.42;5.75;;;;;;;;;;10279701;28;20039;-67
2022/02/27 11:03:12;;;;;;;6.80;4.60;;;;;;;;;;10279229;28;20035;-66
2022/02/27 11:08:15;;;;;;;12.88;5.18;;;;;;;;;;10272599;28;20105;-68
2022/02/27 11:13:20;;;;;;;24.25;5.50;;;;;;;;;;10277889;28;20056;-67
2022/02/27 11:18:23;;;;;;;9.77;5.55;;;;;;;;;;10273322;28;20359;-68
2022/02/27 11:23:26;;;;;;;11.23;5.68;;;;;;;;;;10258514;28;20187;-67
2022/02/27 11:28:31;;;;;;;12.07;5.93;;;;;;;;;;10262778;28;20047;-66
2022/02/27 11:33:34;;;;;;;9.98;4.95;;;;;;;;;;10275199;28;20099;-66
2022/02/27 11:38:38;;;;;;;10.25;5.32;;;;;;;;;;10273206;28;20114;-66
2022/02/27 11:43:46;;;;;;;15.00;7.28;;;;;;;;;;10272728;28;20039;-67
2022/02/27 11:48:57;;;;;;;8.20;4.30;;;;;;;;;;10270807;28;20050;-67
2022/02/27 11:54:05;;;;;;;7.85;3.83;;;;;;;;;;10254508;28;20518;-67
2022/02/27 11:59:10;;;;;;;97.38;10.05;;;;;;;;;;10273882;28;20085;-68
2022/02/27 12:04:26;;;;;;;7.28;4.43;;;;;;;;;;10270819;28;20038;-67
2022/02/27 12:09:49;;;;;;;11.65;4.63;;;;;;;;;;10254211;28;20463;-68
2022/02/27 12:14:53;;;;;;;5.97;3.50;;;;;;;;;;10277198;28;20035;-67
2022/02/27 12:19:58;;;;;;;7.07;4.25;;;;;;;;;;10246627;28;20427;-67
2022/02/27 12:25:05;;;;;;;7.63;4.70;;;;;;;;;;10279277;28;20035;-67
2022/02/27 12:30:10;;;;;;;8.63;4.95;;;;;;;;;;10259602;28;20097;-65
2022/02/27 12:35:13;;;;;;;8.90;5.13;;;;;;;;;;10278022;28;20130;-67
2022/02/27 12:40:16;;;;;;;9.55;5.07;;;;;;;;;;10276401;28;20586;-66
2022/02/27 12:45:27;;;;;;;12.13;5.57;;;;;;;;;;10261054;28;20043;-66
2022/02/27 12:50:32;;;;;;;9.15;5.53;;;;;;;;;;10274464;28;20497;-67
2022/02/27 12:55:35;;;;;;;5.60;3.40;;;;;;;;;;10254396;28;20720;-67
2022/02/27 13:00:41;;;;;;;7.65;4.03;;;;;;;;;;10263354;28;20066;-68
2022/02/27 13:05:44;;;;;;;17.50;6.70;;;;;;;;;;10273447;28;20054;-68
2022/02/27 13:10:48;;;;;;;9.15;5.03;;;;;;;;;;10263329;28;20586;-66
2022/02/27 13:15:53;;;;;;;8.98;4.10;;;;;;;;;;10258401;28;20057;-67
2022/02/27 13:21:01;;;;;;;8.45;4.05;;;;;;;;;;10279505;28;20043;-68
2022/02/27 13:26:05;;;;;;;10.85;5.22;;;;;;;;;;10255549;28;20067;-67
2022/02/27 13:31:20;;;;;;;8.13;4.85;;;;;;;;;;10263611;28;20109;-68
2022/02/27 13:36:23;;;;;;;9.02;4.57;;;;;;;;;;10275260;28;20133;-66
2022/02/27 13:41:27;;;;;;;9.32;4.78;;;;;;;;;;10277380;28;20070;-67
2022/02/27 13:46:30;;;;;;;;;;;;;;;;;;10263537;28;20035;-66
2022/02/27 13:51:34;;;;;;;5.10;2.83;;;;;;;;;;10261313;28;20421;-66
2022/02/27 13:56:38;;;;;;;8.57;3.22;;;;;;;;;;10256226;28;20467;-66
2022/02/27 14:01:41;;;;;;;8.07;4.20;;;;;;;;;;10278039;28;20058;-64
2022/02/27 14:06:48;;;;;;;11.43;5.00;;;;;;;;;;10275221;28;20069;-67
2022/02/27 14:12:02;;;;;;;7.07;3.28;;;;;;;;;;10276442;28;20093;-67
2022/02/27 14:17:19;;;;;;;8.40;3.53;;;;;;;;;;10255227;28;20692;-67
2022/02/27 14:22:23;;;;;;;7.55;3.65;;;;;;;;;;10275303;28;20089;-67
2022/02/27 14:27:29;;;;;;;7.68;4.07;;;;;;;;;;10275767;28;20468;-66
2022/02/27 14:32:33;;;;;;;6.78;3.90;;;;;;;;;;10278178;28;20050;-67
2022/02/27 14:37:37;;;;;;;26.05;7.75;;;;;;;;;;10273769;28;20054;-67
2022/02/27 14:42:40;;;;;;;10.25;3.90;;;;;;;;;;10259730;28;20077;-66
2022/02/27 14:47:43;;;;;;;8.00;4.07;;;;;;;;;;10274911;28;20039;-67
2022/02/27 14:52:48;;;;;;;8.43;4.05;;;;;;;;;;10259574;28;20052;-67
2022/02/27 14:57:51;;;;;;;7.22;2.90;;;;;;;;;;10259254;28;20091;-67
2022/02/27 15:02:54;;;;;;;9.50;4.25;;;;;;;;;;10274736;28;20077;-67
2022/02/27 15:07:58;;;;;;;9.13;3.77;;;;;;;;;;10255686;28;20130;-67
2022/02/27 15:13:01;;;;;;;8.90;3.75;;;;;;;;;;10254736;28;20359;-67
2022/02/27 15:18:05;;;;;;;9.10;3.42;;;;;;;;;;10272617;28;20125;-65
2022/02/27 15:23:09;;;;;;;9.52;4.38;;;;;;;;;;10255542;28;20047;-67
2022/02/27 15:28:13;;;;;;;8.60;3.47;;;;;;;;;;10274481;28;20454;-66
2022/02/27 15:33:16;;;;;;;8.88;4.55;;;;;;;;;;10256905;28;20041;-67
2022/02/27 15:38:20;;;;;;;8.43;3.75;;;;;;;;;;10258300;28;20141;-67
2022/02/27 15:43:23;;;;;;;11.52;3.08;;;;;;;;;;10271970;28;20042;-67
2022/02/27 15:48:26;;;;;;;6.53;2.78;;;;;;;;;;10254668;28;20526;-67
2022/02/27 15:53:30;;;;;;;8.20;3.65;;;;;;;;;;10257323;28;20039;-67
2022/02/27 15:58:33;;;;;;;8.02;3.30;;;;;;;;;;10281252;28;20046;-67
2022/02/27 16:03:39;;;;;;;9.20;2.92;;;;;;;;;;10264808;28;20035;-65
2022/02/27 16:08:44;;;;;;;5.18;2.15;;;;;;;;;;10275684;28;20078;-65
2022/02/27 16:13:48;;;;;;;5.10;2.88;;;;;;;;;;10267442;28;20125;-67
2022/02/27 16:18:51;;;;;;;6.37;2.87;;;;;;;;;;10267561;28;20043;-68
2022/02/27 16:23:55;;;;;;;11.63;3.17;;;;;;;;;;10266320;28;20035;-66
2022/02/27 16:28:58;;;;;;;;;;;;;;;;;;10276202;28;20105;-66
2022/02/27 16:34:01;;;;;;;5.32;2.63;;;;;;;;;;10265782;28;19933;-66
2022/02/27 16:39:06;;;;;;;6.55;3.55;;;;;;;;;;10281474;28;20533;-66
2022/02/27 16:44:09;;;;;;;;;;;;;;;;;;10261354;28;20047;-67
2022/02/27 16:49:13;;;;;;;7.63;3.33;;;;;;;;;;10293787;23;20394;-70
2022/02/27 16:54:17;;;;;;;9.13;4.17;;;;;;;;;;10264808;28;20094;-71
2022/02/27 16:59:19;;;;;;;;;;;;;;;;;;10266912;28;20462;-69
2022/02/27 17:04:22;;;;;;;9.43;2.90;;;;;;;;;;10265074;28;20286;-70
2022/02/27 17:09:27;;;;;;;8.20;3.40;;;;;;;;;;10263153;28;20047;-71
2022/02/27 17:14:29;;;;;;;;;;;;;;;;;;10261993;28;20027;-71
2022/02/27 17:19:32;;;;;;;5.90;2.93;;;;;;;;;;10281693;28;19925;-71
2022/02/27 17:24:36;;;;;;;11.70;4.33;;;;;;;;;;10265494;28;20487;-72
2022/02/27 17:29:40;;;;;;;12.00;4.30;;;;;;;;;;10265556;28;20507;-70
2022/02/27 17:34:43;;;;;;;8.67;3.40;;;;;;;;;;10276848;28;20042;-71
2022/02/27 17:39:47;;;;;;;13.17;4.60;;;;;;;;;;10260151;28;20158;-70
2022/02/27 17:44:50;;;;;;;14.35;5.45;;;;;;;;;;10289653;28;20042;-71
2022/02/27 17:49:53;;;;;;;9.87;4.43;;;;;;;;;;10281717;28;20039;-72
2022/02/27 17:54:58;;;;;;;8.20;3.90;;;;;;;;;;10266269;28;20110;-72
2022/02/27 18:00:02;;;;;;;9.88;3.72;;;;;;;;;;10282161;28;20039;-71
2022/02/27 18:05:05;;;;;;;12.00;4.50;;;;;;;;;;10262609;28;20043;-70
2022/02/27 18:10:11;;;;;;;9.67;3.90;;;;;;;;;;10282584;28;20125;-72
2022/02/27 18:15:18;;;;;;;13.07;4.60;;;;;;;;;;10285589;28;20031;-70
2022/02/27 18:20:23;;;;;;;11.90;4.77;;;;;;;;;;10260511;28;20046;-74
2022/02/27 18:25:29;;;;;;;15.50;3.35;;;;;;;;;;10280661;28;20121;-70
2022/02/27 18:30:33;;;;;;;10.97;4.20;;;;;;;;;;10265834;28;20101;-71
2022/02/27 18:35:35;;;;;;;9.90;4.25;;;;;;;;;;10270814;28;20111;-72
2022/02/27 18:40:40;;;;;;;15.50;5.47;;;;;;;;;;10266261;28;20506;-70
2022/02/27 18:45:42;;;;;;;;;;;;;;;;;;10284529;28;20042;-71
2022/02/27 18:50:45;;;;;;;16.23;5.43;;;;;;;;;;10262285;28;19921;-73
2022/02/27 18:55:49;;;;;;;12.23;4.90;;;;;;;;;;10257936;28;20101;-71
2022/02/27 19:00:52;;;;;;;9.63;3.63;;;;;;;;;;10274997;28;20043;-71
2022/02/27 19:05:55;;;;;;;17.97;4.93;;;;;;;;;;10261341;28;20146;-71
2022/02/27 19:11:01;;;;;;;9.33;4.27;;;;;;;;;;10259790;28;20426;-70
2022/02/27 19:16:05;;;;;;;13.30;5.00;;;;;;;;;;10271953;28;20050;-70
2022/02/27 19:21:08;;;;;;;13.90;5.17;;;;;;;;;;10257527;28;20129;-70
2022/02/27 19:26:12;;;;;;;11.47;4.97;;;;;;;;;;10275958;28;20039;-71
2022/02/27 19:31:15;;;;;;;11.02;3.30;;;;;;;;;;10282150;28;20035;-70
2022/02/27 19:36:18;;;;;;;20.00;5.93;;;;;;;;;;10276456;28;20430;-71
2022/02/27 19:41:22;;;;;;;14.13;4.53;;;;;;;;;;10270408;28;20097;-71
2022/02/27 19:46:25;;;;;;;;;;;;;;;;;;10296752;28;20495;-72
2022/02/27 19:51:29;;;;;;;10.97;5.00;;;;;;;;;;10285596;28;20001;-70
2022/02/27 19:56:34;;;;;;;14.93;4.77;;;;;;;;;;10278031;28;20043;-71
2022/02/27 20:01:36;;;;;;;;;;;;;;;;;;10285049;28;20097;-71
2022/02/27 20:06:39;;;;;;;15.53;4.13;;;;;;;;;;10265450;28;20040;-69
2022/02/27 20:11:44;;;;;;;12.80;4.63;;;;;;;;;;10277429;28;20129;-71
2022/02/27 20:16:46;;;;;;;;;;;;;;;;;;10266429;28;20520;-71
2022/02/27 20:21:49;;;;;;;21.03;4.13;;;;;;;;;;10265329;28;19948;-72
2022/02/27 20:26:55;;;;;;;16.60;5.67;;;;;;;;;;10279720;28;20045;-70
2022/02/27 20:31:59;;;;;;;12.30;4.13;;;;;;;;;;10282080;28;20093;-71
2022/02/27 20:37:02;;;;;;;13.13;5.53;;;;;;;;;;10260985;28;20051;-71
2022/02/27 20:42:08;;;;;;;18.43;5.53;;;;;;;;;;10264508;28;20161;-71
2022/02/27 20:47:10;;;;;;;13.50;5.27;;;;;;;;;;10279235;28;20090;-70
2022/02/27 20:52:14;;;;;;;13.67;4.60;;;;;;;;;;10284458;28;20042;-69
2022/02/27 20:57:18;;;;;;;10.20;3.90;;;;;;;;;;10258652;28;20051;-71
2022/02/27 21:02:21;;;;;;;11.15;4.60;;;;;;;;;;10266668;28;20051;-71
2022/02/27 21:07:25;;;;;;;12.77;5.23;;;;;;;;;;10281459;28;20026;-70
2022/02/27 21:12:31;;;;;;;16.88;4.72;;;;;;;;;;10279271;28;20101;-69
2022/02/27 21:17:34;;;;;;;12.03;4.63;;;;;;;;;;10263613;28;20110;-70
2022/02/27 21:22:37;;;;;;;13.90;4.07;;;;;;;;;;10260374;28;20051;-68
2022/02/27 21:27:41;;;;;;;13.73;5.53;;;;;;;;;;10280749;28;20046;-71
2022/02/27 21:32:46;;;;;;;15.53;5.30;;;;;;;;;;10284348;28;20111;-71
2022/02/27 21:37:49;;;;;;;11.52;3.90;;;;;;;;;;10268817;28;20114;-70
2022/02/27 21:42:54;;;;;;;10.50;4.03;;;;;;;;;;10283002;28;20047;-71
2022/02/27 21:47:56;;;;;;;13.75;4.60;;;;;;;;;;10261790;28;20043;-70
2022/02/27 21:52:59;;;;;;;7.97;3.87;;;;;;;;;;10264834;28;20082;-70
2022/02/27 21:58:03;;;;;;;10.73;4.27;;;;;;;;;;10250084;28;20038;-71
2022/02/27 22:03:06;;;;;;;11.90;4.97;;;;;;;;;;10276365;28;20476;-71
2022/02/27 22:08:10;;;;;;;20.93;4.60;;;;;;;;;;10277306;28;20035;-71
2022/02/27 22:13:14;;;;;;;13.13;4.23;;;;;;;;;;10277635;28;20511;-69
2022/02/27 22:18:17;;;;;;;12.05;4.72;;;;;;;;;;10277184;28;20045;-71
2022/02/27 22:23:20;;;;;;;16.63;5.50;;;;;;;;;;10257541;28;20069;-71
2022/02/27 22:28:24;;;;;;;13.33;4.53;;;;;;;;;;10281213;28;20038;-72
2022/02/27 22:33:27;;;;;;;11.88;5.15;;;;;;;;;;10261423;28;20074;-71
2022/02/27 22:38:30;;;;;;;12.40;5.27;;;;;;;;;;10264166;28;20081;-71
2022/02/27 22:43:34;;;;;;;9.93;3.60;;;;;;;;;;10278109;28;20035;-71
2022/02/27 22:48:38;;;;;;;16.23;5.10;;;;;;;;;;10290497;23;20085;-66
2022/02/27 22:53:50;;;;;;;10.13;3.70;;;;;;;;;;10221547;28;20050;-66
2022/02/27 22:58:54;;;;;;;9.83;4.27;;;;;;;;;;10239009;28;20058;-66
2022/02/27 23:09:18;;;;;;;10.23;3.57;;;;;;;;;;10225004;28;20047;-67
2022/02/27 23:14:22;;;;;;;17.10;4.83;;;;;;;;;;10221630;28;20519;-67
2022/02/27 23:19:26;;;;;;;14.87;5.13;;;;;;;;;;10218809;28;20040;-66
2022/02/27 23:24:28;;;;;;;11.40;4.93;;;;;;;;;;10219491;29;20546;-66
2022/02/27 23:29:33;;;;;;;8.17;3.40;;;;;;;;;;10242933;28;20058;-67
2022/02/27 23:34:37;;;;;;;12.23;4.55;;;;;;;;;;10220545;28;20043;-67
2022/02/27 23:39:40;;;;;;;17.48;4.68;;;;;;;;;;10212600;28;20094;-68
2022/02/27 23:44:46;;;;;;;13.90;4.83;;;;;;;;;;10220963;28;20516;-66
2022/02/27 23:49:48;;;;;;;15.07;5.03;;;;;;;;;;10220834;28;20047;-67
2022/02/27 23:54:51;;;;;;;14.50;5.00;;;;;;;;;;10238065;28;20050;-67
2022/02/27 23:59:59;;;;;;;15.90;4.70;;;;;;;;;;10239960;28;20488;-65
